sensor_id;sensor_type;location;lat;lon;timestamp;temperature;humidity
25208;DHT22;13153;52.316;21.166;2023-12-28T00:01:25;1.90;99.90
25208;DHT22;13153;52.316;21.166;2023-12-28T00:03:51;2.00;99.90
25208;DHT22;13153;52.316;21.166;2023-12-28T00:06:17;2.00;99.90
25208;DHT22;13153;52.316;21.166;2023-12-28T00:08:43;1.90;99.90
25208;DHT22;13153;52.316;21.166;2023-12-28T00:11:09;1.90;99.90
25208;DHT22;13153;52.316;21.166;2023-12-28T00:13:35;2.00;99.90
25208;DHT22;13153;52.316;21.166;2023-12-28T00:16:01;2.00;99.90
25208;DHT22;13153;52.316;21.166;2023-12-28T00:18:27;2.00;99.90
25208;DHT22;13153;52.316;21.166;2023-12-28T00:20:53;2.10;99.90
25208;DHT22;13153;52.316;21.166;2023-12-28T00:23:19;2.00;99.90
25208;DHT22;13153;52.316;21.166;2023-12-28T00:25:47;2.10;99.90
25208;DHT22;13153;52.316;21.166;2023-12-28T00:28:13;2.10;99.90
25208;DHT22;13153;52.316;21.166;2023-12-28T00:30:39;2.10;99.90
25208;DHT22;13153;52.316;21.166;2023-12-28T00:33:04;2.10;99.90
25208;DHT22;13153;52.316;21.166;2023-12-28T00:35:30;2.10;99.90
25208;DHT22;13153;52.316;21.166;2023-12-28T00:37:56;2.10;99.90
25208;DHT22;13153;52.316;21.166;2023-12-28T00:40:21;2.00;99.90
25208;DHT22;13153;52.316;21.166;2023-12-28T00:42:48;1.90;99.90
25208;DHT22;13153;52.316;21.166;2023-12-28T00:45:14;2.00;99.90
25208;DHT22;13153;52.316;21.166;2023-12-28T00:47:40;1.90;99.90
25208;DHT22;13153;52.316;21.166;2023-12-28T00:50:08;1.90;99.90
25208;DHT22;13153;52.316;21.166;2023-12-28T00:52:40;1.80;99.90
25208;DHT22;13153;52.316;21.166;2023-12-28T00:55:06;1.80;99.90
25208;DHT22;13153;52.316;21.166;2023-12-28T00:57:33;1.80;99.90
25208;DHT22;13153;52.316;21.166;2023-12-28T00:59:59;1.90;99.90
25208;DHT22;13153;52.316;21.166;2023-12-28T01:02:25;1.90;99.90
25208;DHT22;13153;52.316;21.166;2023-12-28T01:04:51;1.90;99.90
25208;DHT22;13153;52.316;21.166;2023-12-28T01:07:17;1.90;99.90
25208;DHT22;13153;52.316;21.166;2023-12-28T01:09:42;1.90;99.90
25208;DHT22;13153;52.316;21.166;2023-12-28T01:12:08;1.80;99.90
25208;DHT22;13153;52.316;21.166;2023-12-28T01:14:34;1.80;99.90
25208;DHT22;13153;52.316;21.166;2023-12-28T01:16:59;1.80;99.90
25208;DHT22;13153;52.316;21.166;2023-12-28T01:19:25;1.80;99.90
25208;DHT22;13153;52.316;21.166;2023-12-28T01:21:51;1.80;99.90
25208;DHT22;13153;52.316;21.166;2023-12-28T01:24:17;1.80;99.90
25208;DHT22;13153;52.316;21.166;2023-12-28T01:26:43;1.70;99.90
25208;DHT22;13153;52.316;21.166;2023-12-28T01:29:08;1.70;99.90
25208;DHT22;13153;52.316;21.166;2023-12-28T01:31:34;1.70;99.90
25208;DHT22;13153;52.316;21.166;2023-12-28T01:34:00;1.70;99.90
25208;DHT22;13153;52.316;21.166;2023-12-28T01:36:26;1.70;99.90
25208;DHT22;13153;52.316;21.166;2023-12-28T01:38:54;1.70;99.90
25208;DHT22;13153;52.316;21.166;2023-12-28T01:41:20;1.70;99.90
25208;DHT22;13153;52.316;21.166;2023-12-28T01:43:46;1.80;99.90
25208;DHT22;13153;52.316;21.166;2023-12-28T01:46:17;1.70;99.90
25208;DHT22;13153;52.316;21.166;2023-12-28T01:48:47;1.80;99.90
25208;DHT22;13153;52.316;21.166;2023-12-28T01:51:15;1.70;99.90
25208;DHT22;13153;52.316;21.166;2023-12-28T01:53:41;1.70;99.90
25208;DHT22;13153;52.316;21.166;2023-12-28T01:56:11;1.70;99.90
25208;DHT22;13153;52.316;21.166;2023-12-28T01:58:40;1.70;99.90
25208;DHT22;13153;52.316;21.166;2023-12-28T02:01:09;1.60;99.90
25208;DHT22;13153;52.316;21.166;2023-12-28T02:03:36;1.60;99.90
25208;DHT22;13153;52.316;21.166;2023-12-28T02:06:02;1.60;99.90
25208;DHT22;13153;52.316;21.166;2023-12-28T02:08:30;1.60;99.90
25208;DHT22;13153;52.316;21.166;2023-12-28T02:10:55;1.60;99.90
25208;DHT22;13153;52.316;21.166;2023-12-28T02:13:21;1.60;99.90
25208;DHT22;13153;52.316;21.166;2023-12-28T02:15:51;1.60;99.90
25208;DHT22;13153;52.316;21.166;2023-12-28T02:18:27;1.60;99.90
25208;DHT22;13153;52.316;21.166;2023-12-28T02:21:02;1.60;99.90
25208;DHT22;13153;52.316;21.166;2023-12-28T02:23:28;1.60;99.90
25208;DHT22;13153;52.316;21.166;2023-12-28T02:25:54;1.60;99.90
25208;DHT22;13153;52.316;21.166;2023-12-28T02:28:20;1.60;99.90
25208;DHT22;13153;52.316;21.166;2023-12-28T02:30:46;1.60;99.90
25208;DHT22;13153;52.316;21.166;2023-12-28T02:33:15;1.60;99.90
25208;DHT22;13153;52.316;21.166;2023-12-28T02:36:06;1.60;99.90
25208;DHT22;13153;52.316;21.166;2023-12-28T02:38:37;1.70;99.90
25208;DHT22;13153;52.316;21.166;2023-12-28T02:41:05;1.70;99.90
25208;DHT22;13153;52.316;21.166;2023-12-28T02:43:32;1.70;99.90
25208;DHT22;13153;52.316;21.166;2023-12-28T02:45:58;1.70;99.90
25208;DHT22;13153;52.316;21.166;2023-12-28T02:48:24;1.70;99.90
25208;DHT22;13153;52.316;21.166;2023-12-28T02:50:51;1.70;99.90
25208;DHT22;13153;52.316;21.166;2023-12-28T02:53:17;1.70;99.90
25208;DHT22;13153;52.316;21.166;2023-12-28T02:55:42;1.70;99.90
25208;DHT22;13153;52.316;21.166;2023-12-28T02:58:08;1.70;99.90
25208;DHT22;13153;52.316;21.166;2023-12-28T03:00:34;1.80;99.90
25208;DHT22;13153;52.316;21.166;2023-12-28T03:03:00;1.70;99.90
25208;DHT22;13153;52.316;21.166;2023-12-28T03:05:25;1.70;99.90
25208;DHT22;13153;52.316;21.166;2023-12-28T03:07:51;1.80;99.90
25208;DHT22;13153;52.316;21.166;2023-12-28T03:10:17;1.80;99.90
25208;DHT22;13153;52.316;21.166;2023-12-28T03:12:43;1.80;99.90
25208;DHT22;13153;52.316;21.166;2023-12-28T03:15:08;1.80;99.90
25208;DHT22;13153;52.316;21.166;2023-12-28T03:17:34;1.80;99.90
25208;DHT22;13153;52.316;21.166;2023-12-28T03:20:02;1.80;99.90
25208;DHT22;13153;52.316;21.166;2023-12-28T03:22:28;1.80;99.90
25208;DHT22;13153;52.316;21.166;2023-12-28T03:24:54;1.80;99.90
25208;DHT22;13153;52.316;21.166;2023-12-28T03:27:20;1.80;99.90
25208;DHT22;13153;52.316;21.166;2023-12-28T03:29:46;1.80;99.90
25208;DHT22;13153;52.316;21.166;2023-12-28T03:32:11;1.80;99.90
25208;DHT22;13153;52.316;21.166;2023-12-28T03:34:37;1.80;99.90
25208;DHT22;13153;52.316;21.166;2023-12-28T03:37:03;1.70;99.90
25208;DHT22;13153;52.316;21.166;2023-12-28T03:39:29;1.70;99.90
25208;DHT22;13153;52.316;21.166;2023-12-28T03:41:55;1.70;99.90
25208;DHT22;13153;52.316;21.166;2023-12-28T03:44:21;1.70;99.90
25208;DHT22;13153;52.316;21.166;2023-12-28T03:46:48;1.80;99.90
25208;DHT22;13153;52.316;21.166;2023-12-28T03:49:18;1.70;99.90
25208;DHT22;13153;52.316;21.166;2023-12-28T03:51:45;1.80;99.90
25208;DHT22;13153;52.316;21.166;2023-12-28T03:54:12;1.80;99.90
25208;DHT22;13153;52.316;21.166;2023-12-28T03:56:38;1.80;99.90
25208;DHT22;13153;52.316;21.166;2023-12-28T03:59:08;1.80;99.90
25208;DHT22;13153;52.316;21.166;2023-12-28T04:01:34;1.70;99.90
25208;DHT22;13153;52.316;21.166;2023-12-28T04:04:00;1.80;99.90
25208;DHT22;13153;52.316;21.166;2023-12-28T04:06:26;1.80;99.90
25208;DHT22;13153;52.316;21.166;2023-12-28T04:08:52;1.80;99.90
25208;DHT22;13153;52.316;21.166;2023-12-28T04:11:18;1.80;99.90
25208;DHT22;13153;52.316;21.166;2023-12-28T04:13:44;1.80;99.90
25208;DHT22;13153;52.316;21.166;2023-12-28T04:16:14;1.80;99.90
25208;DHT22;13153;52.316;21.166;2023-12-28T04:18:41;1.70;99.90
25208;DHT22;13153;52.316;21.166;2023-12-28T04:21:11;1.70;99.90
25208;DHT22;13153;52.316;21.166;2023-12-28T04:23:39;1.80;99.90
25208;DHT22;13153;52.316;21.166;2023-12-28T04:26:06;1.70;99.90
25208;DHT22;13153;52.316;21.166;2023-12-28T04:28:32;1.70;99.90
25208;DHT22;13153;52.316;21.166;2023-12-28T04:31:05;1.80;99.90
25208;DHT22;13153;52.316;21.166;2023-12-28T04:33:32;1.80;99.90
25208;DHT22;13153;52.316;21.166;2023-12-28T04:36:03;1.80;99.90
25208;DHT22;13153;52.316;21.166;2023-12-28T04:38:31;1.80;99.90
25208;DHT22;13153;52.316;21.166;2023-12-28T04:40:57;1.80;99.90
25208;DHT22;13153;52.316;21.166;2023-12-28T04:43:24;1.80;99.90
25208;DHT22;13153;52.316;21.166;2023-12-28T04:45:51;1.80;99.90
25208;DHT22;13153;52.316;21.166;2023-12-28T04:48:17;1.80;99.90
25208;DHT22;13153;52.316;21.166;2023-12-28T04:50:49;1.80;99.90
25208;DHT22;13153;52.316;21.166;2023-12-28T04:53:15;1.90;99.90
25208;DHT22;13153;52.316;21.166;2023-12-28T04:55:41;1.80;99.90
25208;DHT22;13153;52.316;21.166;2023-12-28T04:58:07;1.80;99.90
25208;DHT22;13153;52.316;21.166;2023-12-28T05:00:33;1.80;99.90
25208;DHT22;13153;52.316;21.166;2023-12-28T05:02:59;1.90;99.90
25208;DHT22;13153;52.316;21.166;2023-12-28T05:05:25;1.90;99.90
25208;DHT22;13153;52.316;21.166;2023-12-28T05:07:51;1.90;99.90
25208;DHT22;13153;52.316;21.166;2023-12-28T05:10:17;1.90;96.10
25208;DHT22;13153;52.316;21.166;2023-12-28T05:12:42;1.90;95.10
25208;DHT22;13153;52.316;21.166;2023-12-28T05:15:08;1.90;89.40
25208;DHT22;13153;52.316;21.166;2023-12-28T05:17:35;1.90;90.30
25208;DHT22;13153;52.316;21.166;2023-12-28T05:20:00;1.90;85.30
25208;DHT22;13153;52.316;21.166;2023-12-28T05:22:26;1.90;81.60
25208;DHT22;13153;52.316;21.166;2023-12-28T05:24:52;1.90;79.80
25208;DHT22;13153;52.316;21.166;2023-12-28T05:27:17;1.90;82.90
25208;DHT22;13153;52.316;21.166;2023-12-28T05:29:43;1.80;87.40
25208;DHT22;13153;52.316;21.166;2023-12-28T05:32:09;1.90;84.50
25208;DHT22;13153;52.316;21.166;2023-12-28T05:34:34;1.90;75.70
25208;DHT22;13153;52.316;21.166;2023-12-28T05:37:00;1.90;72.10
25208;DHT22;13153;52.316;21.166;2023-12-28T05:39:26;1.90;73.70
25208;DHT22;13153;52.316;21.166;2023-12-28T05:41:52;1.90;71.00
25208;DHT22;13153;52.316;21.166;2023-12-28T05:44:17;1.90;72.60
25208;DHT22;13153;52.316;21.166;2023-12-28T05:46:43;1.90;76.70
25208;DHT22;13153;52.316;21.166;2023-12-28T05:49:09;1.90;77.00
25208;DHT22;13153;52.316;21.166;2023-12-28T05:51:38;1.90;76.40
25208;DHT22;13153;52.316;21.166;2023-12-28T05:54:08;1.90;80.50
25208;DHT22;13153;52.316;21.166;2023-12-28T05:56:34;1.90;78.90
25208;DHT22;13153;52.316;21.166;2023-12-28T05:59:00;2.00;76.60
25208;DHT22;13153;52.316;21.166;2023-12-28T06:01:26;2.00;67.00
25208;DHT22;13153;52.316;21.166;2023-12-28T06:03:53;2.00;72.20
25208;DHT22;13153;52.316;21.166;2023-12-28T06:06:19;2.00;74.20
25208;DHT22;13153;52.316;21.166;2023-12-28T06:08:46;2.00;73.00
25208;DHT22;13153;52.316;21.166;2023-12-28T06:11:12;2.10;67.90
25208;DHT22;13153;52.316;21.166;2023-12-28T06:13:38;2.10;60.00
25208;DHT22;13153;52.316;21.166;2023-12-28T06:16:03;2.10;59.00
25208;DHT22;13153;52.316;21.166;2023-12-28T06:18:29;2.10;57.60
25208;DHT22;13153;52.316;21.166;2023-12-28T06:20:56;2.10;59.00
25208;DHT22;13153;52.316;21.166;2023-12-28T06:23:22;2.10;59.60
25208;DHT22;13153;52.316;21.166;2023-12-28T06:25:47;2.10;59.00
25208;DHT22;13153;52.316;21.166;2023-12-28T06:28:13;2.10;59.00
25208;DHT22;13153;52.316;21.166;2023-12-28T06:30:39;2.20;55.80
25208;DHT22;13153;52.316;21.166;2023-12-28T06:33:05;2.10;57.80
25208;DHT22;13153;52.316;21.166;2023-12-28T06:35:31;2.10;56.50
25208;DHT22;13153;52.316;21.166;2023-12-28T06:37:57;2.20;59.80
25208;DHT22;13153;52.316;21.166;2023-12-28T06:40:22;2.20;61.50
25208;DHT22;13153;52.316;21.166;2023-12-28T06:42:48;2.10;59.70
25208;DHT22;13153;52.316;21.166;2023-12-28T06:45:14;2.10;61.70
25208;DHT22;13153;52.316;21.166;2023-12-28T06:47:40;2.10;59.70
25208;DHT22;13153;52.316;21.166;2023-12-28T06:50:06;2.10;62.80
25208;DHT22;13153;52.316;21.166;2023-12-28T06:52:32;2.10;65.30
25208;DHT22;13153;52.316;21.166;2023-12-28T06:54:58;2.10;61.80
25208;DHT22;13153;52.316;21.166;2023-12-28T06:57:24;2.10;67.10
25208;DHT22;13153;52.316;21.166;2023-12-28T06:59:50;2.00;67.90
25208;DHT22;13153;52.316;21.166;2023-12-28T07:02:16;2.00;78.30
25208;DHT22;13153;52.316;21.166;2023-12-28T07:04:41;2.00;82.50
25208;DHT22;13153;52.316;21.166;2023-12-28T07:07:07;2.00;83.60
25208;DHT22;13153;52.316;21.166;2023-12-28T07:09:33;2.00;78.40
25208;DHT22;13153;52.316;21.166;2023-12-28T07:11:58;2.00;77.70
25208;DHT22;13153;52.316;21.166;2023-12-28T07:14:25;2.00;78.30
25208;DHT22;13153;52.316;21.166;2023-12-28T07:16:50;2.00;78.70
25208;DHT22;13153;52.316;21.166;2023-12-28T07:19:16;2.10;75.80
25208;DHT22;13153;52.316;21.166;2023-12-28T07:21:42;2.10;79.20
25208;DHT22;13153;52.316;21.166;2023-12-28T07:24:07;2.10;76.60
25208;DHT22;13153;52.316;21.166;2023-12-28T07:26:34;2.10;77.20
25208;DHT22;13153;52.316;21.166;2023-12-28T07:29:00;2.20;73.40
25208;DHT22;13153;52.316;21.166;2023-12-28T07:31:27;2.20;75.00
25208;DHT22;13153;52.316;21.166;2023-12-28T07:33:54;2.30;75.30
25208;DHT22;13153;52.316;21.166;2023-12-28T07:36:20;2.40;66.00
25208;DHT22;13153;52.316;21.166;2023-12-28T07:38:46;2.50;49.90
25208;DHT22;13153;52.316;21.166;2023-12-28T07:41:12;2.60;52.50
25208;DHT22;13153;52.316;21.166;2023-12-28T07:43:38;2.80;51.20
25208;DHT22;13153;52.316;21.166;2023-12-28T07:46:04;2.90;35.10
25208;DHT22;13153;52.316;21.166;2023-12-28T07:48:30;3.00;10.30
25208;DHT22;13153;52.316;21.166;2023-12-28T07:51:03;3.10;6.30
25208;DHT22;13153;52.316;21.166;2023-12-28T07:53:29;3.20;3.10
25208;DHT22;13153;52.316;21.166;2023-12-28T07:55:55;3.30;1.00
25208;DHT22;13153;52.316;21.166;2023-12-28T07:58:21;3.40;1.00
25208;DHT22;13153;52.316;21.166;2023-12-28T08:00:47;3.40;1.00
25208;DHT22;13153;52.316;21.166;2023-12-28T08:03:14;3.30;1.00
25208;DHT22;13153;52.316;21.166;2023-12-28T08:05:43;3.30;1.00
25208;DHT22;13153;52.316;21.166;2023-12-28T08:08:09;3.30;1.00
25208;DHT22;13153;52.316;21.166;2023-12-28T08:10:34;3.30;1.00
25208;DHT22;13153;52.316;21.166;2023-12-28T08:13:00;3.20;1.00
25208;DHT22;13153;52.316;21.166;2023-12-28T08:15:26;3.30;1.00
25208;DHT22;13153;52.316;21.166;2023-12-28T08:17:51;3.30;3.10
25208;DHT22;13153;52.316;21.166;2023-12-28T08:20:17;3.30;1.00
25208;DHT22;13153;52.316;21.166;2023-12-28T08:22:43;3.30;2.80
25208;DHT22;13153;52.316;21.166;2023-12-28T08:25:09;3.30;6.00
25208;DHT22;13153;52.316;21.166;2023-12-28T08:27:35;3.30;10.80
25208;DHT22;13153;52.316;21.166;2023-12-28T08:30:01;3.30;12.80
25208;DHT22;13153;52.316;21.166;2023-12-28T08:32:27;3.30;12.60
25208;DHT22;13153;52.316;21.166;2023-12-28T08:34:53;3.40;15.60
25208;DHT22;13153;52.316;21.166;2023-12-28T08:37:19;3.40;15.80
25208;DHT22;13153;52.316;21.166;2023-12-28T08:39:44;3.40;16.20
25208;DHT22;13153;52.316;21.166;2023-12-28T08:42:10;3.40;18.10
25208;DHT22;13153;52.316;21.166;2023-12-28T08:44:36;3.40;19.70
25208;DHT22;13153;52.316;21.166;2023-12-28T08:47:02;3.50;22.20
25208;DHT22;13153;52.316;21.166;2023-12-28T08:49:28;3.50;24.40
25208;DHT22;13153;52.316;21.166;2023-12-28T08:51:54;3.50;24.60
25208;DHT22;13153;52.316;21.166;2023-12-28T08:54:20;3.50;25.60
25208;DHT22;13153;52.316;21.166;2023-12-28T08:56:46;3.60;31.00
25208;DHT22;13153;52.316;21.166;2023-12-28T08:59:13;3.60;35.40
25208;DHT22;13153;52.316;21.166;2023-12-28T09:01:39;3.60;40.30
25208;DHT22;13153;52.316;21.166;2023-12-28T09:04:05;3.70;37.30
25208;DHT22;13153;52.316;21.166;2023-12-28T09:06:31;3.70;35.80
25208;DHT22;13153;52.316;21.166;2023-12-28T09:08:56;3.80;33.10
25208;DHT22;13153;52.316;21.166;2023-12-28T09:11:23;3.80;32.20
25208;DHT22;13153;52.316;21.166;2023-12-28T09:13:49;3.90;32.80
25208;DHT22;13153;52.316;21.166;2023-12-28T09:16:15;4.00;35.70
25208;DHT22;13153;52.316;21.166;2023-12-28T09:18:42;4.00;35.50
25208;DHT22;13153;52.316;21.166;2023-12-28T09:21:08;4.10;29.60
25208;DHT22;13153;52.316;21.166;2023-12-28T09:23:35;4.10;29.30
25208;DHT22;13153;52.316;21.166;2023-12-28T09:26:02;4.20;30.70
25208;DHT22;13153;52.316;21.166;2023-12-28T09:28:29;4.20;27.60
25208;DHT22;13153;52.316;21.166;2023-12-28T09:30:55;4.20;42.30
25208;DHT22;13153;52.316;21.166;2023-12-28T09:33:21;4.20;34.40
25208;DHT22;13153;52.316;21.166;2023-12-28T09:35:47;4.30;34.70
25208;DHT22;13153;52.316;21.166;2023-12-28T09:38:14;4.30;35.40
25208;DHT22;13153;52.316;21.166;2023-12-28T09:40:43;4.30;39.70
25208;DHT22;13153;52.316;21.166;2023-12-28T09:43:19;4.40;37.60
25208;DHT22;13153;52.316;21.166;2023-12-28T09:45:48;4.50;33.70
25208;DHT22;13153;52.316;21.166;2023-12-28T09:48:19;4.50;33.10
25208;DHT22;13153;52.316;21.166;2023-12-28T09:50:49;4.60;28.80
25208;DHT22;13153;52.316;21.166;2023-12-28T09:53:16;4.60;25.10
25208;DHT22;13153;52.316;21.166;2023-12-28T09:55:43;4.70;25.40
25208;DHT22;13153;52.316;21.166;2023-12-28T09:58:13;4.70;44.40
25208;DHT22;13153;52.316;21.166;2023-12-28T10:00:44;4.70;47.10
25208;DHT22;13153;52.316;21.166;2023-12-28T10:03:15;4.70;71.50
25208;DHT22;13153;52.316;21.166;2023-12-28T10:05:41;4.60;95.10
25208;DHT22;13153;52.316;21.166;2023-12-28T10:08:08;4.60;95.70
25208;DHT22;13153;52.316;21.166;2023-12-28T10:10:34;4.60;99.90
25208;DHT22;13153;52.316;21.166;2023-12-28T10:13:00;4.60;99.90
25208;DHT22;13153;52.316;21.166;2023-12-28T10:15:27;4.70;99.90
25208;DHT22;13153;52.316;21.166;2023-12-28T10:17:53;4.80;99.90
25208;DHT22;13153;52.316;21.166;2023-12-28T10:20:19;4.90;99.90
25208;DHT22;13153;52.316;21.166;2023-12-28T10:22:45;5.00;99.90
25208;DHT22;13153;52.316;21.166;2023-12-28T10:25:11;5.10;99.90
25208;DHT22;13153;52.316;21.166;2023-12-28T10:27:39;5.20;99.90
25208;DHT22;13153;52.316;21.166;2023-12-28T10:30:07;5.30;94.20
25208;DHT22;13153;52.316;21.166;2023-12-28T10:32:33;5.40;84.30
25208;DHT22;13153;52.316;21.166;2023-12-28T10:34:59;5.50;73.00
25208;DHT22;13153;52.316;21.166;2023-12-28T10:37:26;5.50;63.20
25208;DHT22;13153;52.316;21.166;2023-12-28T10:39:53;5.50;68.50
25208;DHT22;13153;52.316;21.166;2023-12-28T10:42:31;5.60;60.10
25208;DHT22;13153;52.316;21.166;2023-12-28T10:45:05;5.60;65.60
25208;DHT22;13153;52.316;21.166;2023-12-28T10:47:32;5.60;62.00
25208;DHT22;13153;52.316;21.166;2023-12-28T10:50:03;5.60;44.90
25208;DHT22;13153;52.316;21.166;2023-12-28T10:52:33;5.70;46.00
25208;DHT22;13153;52.316;21.166;2023-12-28T10:58:18;5.80;39.40
25208;DHT22;13153;52.316;21.166;2023-12-28T11:00:58;5.80;45.30
25208;DHT22;13153;52.316;21.166;2023-12-28T11:03:34;5.80;51.50
25208;DHT22;13153;52.316;21.166;2023-12-28T11:06:03;5.80;72.60
25208;DHT22;13153;52.316;21.166;2023-12-28T11:08:32;5.80;81.10
25208;DHT22;13153;52.316;21.166;2023-12-28T11:10:59;5.80;93.60
25208;DHT22;13153;52.316;21.166;2023-12-28T11:13:29;5.80;97.20
25208;DHT22;13153;52.316;21.166;2023-12-28T11:15:58;5.80;99.90
25208;DHT22;13153;52.316;21.166;2023-12-28T11:18:25;5.80;99.90
25208;DHT22;13153;52.316;21.166;2023-12-28T11:20:53;5.80;99.90
25208;DHT22;13153;52.316;21.166;2023-12-28T11:23:20;5.70;99.90
25208;DHT22;13153;52.316;21.166;2023-12-28T11:25:46;5.60;99.90
25208;DHT22;13153;52.316;21.166;2023-12-28T11:28:12;5.60;99.90
25208;DHT22;13153;52.316;21.166;2023-12-28T11:30:41;5.50;99.90
25208;DHT22;13153;52.316;21.166;2023-12-28T11:33:10;5.50;99.90
25208;DHT22;13153;52.316;21.166;2023-12-28T11:35:38;5.50;99.90
25208;DHT22;13153;52.316;21.166;2023-12-28T11:38:07;5.50;99.90
25208;DHT22;13153;52.316;21.166;2023-12-28T11:40:42;5.40;99.90
25208;DHT22;13153;52.316;21.166;2023-12-28T11:43:18;5.40;99.90
25208;DHT22;13153;52.316;21.166;2023-12-28T11:45:52;5.40;99.90
25208;DHT22;13153;52.316;21.166;2023-12-28T11:48:25;5.40;99.90
25208;DHT22;13153;52.316;21.166;2023-12-28T11:50:54;5.40;99.90
25208;DHT22;13153;52.316;21.166;2023-12-28T11:53:23;5.50;99.90
25208;DHT22;13153;52.316;21.166;2023-12-28T11:55:49;5.50;99.90
25208;DHT22;13153;52.316;21.166;2023-12-28T11:58:17;5.50;99.90
25208;DHT22;13153;52.316;21.166;2023-12-28T12:00:43;5.50;99.90
25208;DHT22;13153;52.316;21.166;2023-12-28T12:03:13;5.60;99.90
25208;DHT22;13153;52.316;21.166;2023-12-28T12:05:39;5.60;99.90
25208;DHT22;13153;52.316;21.166;2023-12-28T12:08:06;5.60;99.90
25208;DHT22;13153;52.316;21.166;2023-12-28T12:10:34;5.70;99.90
25208;DHT22;13153;52.316;21.166;2023-12-28T12:13:00;5.70;99.90
25208;DHT22;13153;52.316;21.166;2023-12-28T12:15:28;5.70;99.90
25208;DHT22;13153;52.316;21.166;2023-12-28T12:17:55;5.70;99.90
25208;DHT22;13153;52.316;21.166;2023-12-28T12:20:21;5.70;99.90
25208;DHT22;13153;52.316;21.166;2023-12-28T12:22:48;5.80;99.90
25208;DHT22;13153;52.316;21.166;2023-12-28T12:25:17;5.80;99.90
25208;DHT22;13153;52.316;21.166;2023-12-28T12:27:45;5.80;99.90
25208;DHT22;13153;52.316;21.166;2023-12-28T12:30:11;5.80;99.90
25208;DHT22;13153;52.316;21.166;2023-12-28T12:32:37;5.80;99.90
25208;DHT22;13153;52.316;21.166;2023-12-28T12:35:06;5.80;99.90
25208;DHT22;13153;52.316;21.166;2023-12-28T12:37:32;5.80;99.90
25208;DHT22;13153;52.316;21.166;2023-12-28T12:39:58;5.80;99.90
25208;DHT22;13153;52.316;21.166;2023-12-28T12:42:24;5.90;99.90
25208;DHT22;13153;52.316;21.166;2023-12-28T12:44:50;5.90;99.90
25208;DHT22;13153;52.316;21.166;2023-12-28T12:47:16;5.90;99.90
25208;DHT22;13153;52.316;21.166;2023-12-28T12:49:42;5.90;99.90
25208;DHT22;13153;52.316;21.166;2023-12-28T12:52:09;5.90;99.90
25208;DHT22;13153;52.316;21.166;2023-12-28T12:54:35;5.90;99.90
25208;DHT22;13153;52.316;21.166;2023-12-28T12:57:01;6.00;99.90
25208;DHT22;13153;52.316;21.166;2023-12-28T12:59:27;5.90;99.90
25208;DHT22;13153;52.316;21.166;2023-12-28T13:01:55;6.00;99.90
25208;DHT22;13153;52.316;21.166;2023-12-28T13:04:20;6.00;99.90
25208;DHT22;13153;52.316;21.166;2023-12-28T13:06:47;6.00;99.90
25208;DHT22;13153;52.316;21.166;2023-12-28T13:09:12;6.10;99.90
25208;DHT22;13153;52.316;21.166;2023-12-28T13:11:38;6.10;99.90
25208;DHT22;13153;52.316;21.166;2023-12-28T13:14:04;6.20;99.90
25208;DHT22;13153;52.316;21.166;2023-12-28T13:16:30;6.20;99.90
25208;DHT22;13153;52.316;21.166;2023-12-28T13:18:56;6.20;99.90
25208;DHT22;13153;52.316;21.166;2023-12-28T13:21:23;6.20;99.90
25208;DHT22;13153;52.316;21.166;2023-12-28T13:23:48;6.20;99.90
25208;DHT22;13153;52.316;21.166;2023-12-28T13:26:14;6.20;99.90
25208;DHT22;13153;52.316;21.166;2023-12-28T13:28:40;6.30;99.90
25208;DHT22;13153;52.316;21.166;2023-12-28T13:31:08;6.30;99.90
25208;DHT22;13153;52.316;21.166;2023-12-28T13:33:33;6.20;99.90
25208;DHT22;13153;52.316;21.166;2023-12-28T13:35:59;6.30;99.90
25208;DHT22;13153;52.316;21.166;2023-12-28T13:38:25;6.20;99.90
25208;DHT22;13153;52.316;21.166;2023-12-28T13:40:51;6.30;99.90
25208;DHT22;13153;52.316;21.166;2023-12-28T13:43:17;6.20;99.90
25208;DHT22;13153;52.316;21.166;2023-12-28T13:45:42;6.30;99.90
25208;DHT22;13153;52.316;21.166;2023-12-28T13:48:08;6.30;99.90
25208;DHT22;13153;52.316;21.166;2023-12-28T13:50:34;6.20;99.90
25208;DHT22;13153;52.316;21.166;2023-12-28T13:53:00;6.20;99.90
25208;DHT22;13153;52.316;21.166;2023-12-28T13:55:25;6.30;99.90
25208;DHT22;13153;52.316;21.166;2023-12-28T13:57:53;6.30;99.90
25208;DHT22;13153;52.316;21.166;2023-12-28T14:00:19;6.30;99.90
25208;DHT22;13153;52.316;21.166;2023-12-28T14:02:45;6.30;99.90
25208;DHT22;13153;52.316;21.166;2023-12-28T14:05:10;6.30;99.90
25208;DHT22;13153;52.316;21.166;2023-12-28T14:07:36;6.30;99.90
25208;DHT22;13153;52.316;21.166;2023-12-28T14:10:02;6.40;99.90
25208;DHT22;13153;52.316;21.166;2023-12-28T14:12:28;6.30;99.90
25208;DHT22;13153;52.316;21.166;2023-12-28T14:14:54;6.30;99.90
25208;DHT22;13153;52.316;21.166;2023-12-28T14:17:20;6.30;99.90
25208;DHT22;13153;52.316;21.166;2023-12-28T14:19:46;6.30;99.90
25208;DHT22;13153;52.316;21.166;2023-12-28T14:22:12;6.30;99.90
25208;DHT22;13153;52.316;21.166;2023-12-28T14:24:39;6.40;99.90
25208;DHT22;13153;52.316;21.166;2023-12-28T14:27:05;6.40;99.90
25208;DHT22;13153;52.316;21.166;2023-12-28T14:29:31;6.40;99.90
25208;DHT22;13153;52.316;21.166;2023-12-28T14:31:57;6.40;99.90
25208;DHT22;13153;52.316;21.166;2023-12-28T14:34:23;6.40;99.90
25208;DHT22;13153;52.316;21.166;2023-12-28T14:36:52;6.40;99.90
25208;DHT22;13153;52.316;21.166;2023-12-28T14:39:18;6.40;99.90
25208;DHT22;13153;52.316;21.166;2023-12-28T14:41:45;6.40;99.90
25208;DHT22;13153;52.316;21.166;2023-12-28T14:44:11;6.40;99.90
25208;DHT22;13153;52.316;21.166;2023-12-28T14:46:37;6.40;99.90
25208;DHT22;13153;52.316;21.166;2023-12-28T14:49:03;6.50;99.90
25208;DHT22;13153;52.316;21.166;2023-12-28T14:51:30;6.40;99.90
25208;DHT22;13153;52.316;21.166;2023-12-28T14:53:56;6.40;99.90
25208;DHT22;13153;52.316;21.166;2023-12-28T14:56:22;6.50;99.90
25208;DHT22;13153;52.316;21.166;2023-12-28T14:58:47;6.50;99.90
25208;DHT22;13153;52.316;21.166;2023-12-28T15:01:14;6.50;99.90
25208;DHT22;13153;52.316;21.166;2023-12-28T15:03:40;6.50;99.90
25208;DHT22;13153;52.316;21.166;2023-12-28T15:06:06;6.50;99.90
25208;DHT22;13153;52.316;21.166;2023-12-28T15:08:32;6.50;99.90
25208;DHT22;13153;52.316;21.166;2023-12-28T15:10:58;6.60;99.90
25208;DHT22;13153;52.316;21.166;2023-12-28T15:13:26;6.50;99.90
25208;DHT22;13153;52.316;21.166;2023-12-28T15:15:52;6.50;99.90
25208;DHT22;13153;52.316;21.166;2023-12-28T15:18:18;6.50;99.90
25208;DHT22;13153;52.316;21.166;2023-12-28T15:20:46;6.50;99.90
25208;DHT22;13153;52.316;21.166;2023-12-28T15:23:14;6.40;99.90
25208;DHT22;13153;52.316;21.166;2023-12-28T15:25:44;6.40;99.90
25208;DHT22;13153;52.316;21.166;2023-12-28T15:28:10;6.40;99.90
25208;DHT22;13153;52.316;21.166;2023-12-28T15:30:36;6.40;99.90
25208;DHT22;13153;52.316;21.166;2023-12-28T15:33:01;6.40;99.90